Time;durP1;ratioP1;P1;durP2;ratioP2;P2;SDS_P1;SDS_P2;PMS_P1;PMS_P2;Temp;Humidity;BMP_temperature;BMP_pressure;BME280_temperature;BME280_humidity;BME280_pressure;Samples;Min_cycle;Max_cycle;Signal;HPM_P1;HPM_P2
2021/06/17 00:02:30;;;;;;;4.77;2.83;;;;;;;;;;5055843;28;20511;-74
2021/06/17 00:05:35;;;;;;;4.90;2.70;;;;;;;;;;5056532;28;20192;-75
2021/06/17 00:08:40;;;;;;;3.70;2.70;;;;;;;;;;5056402;28;20176;-75
2021/06/17 00:11:44;;;;;;;4.57;2.60;;;;;;;;;;5055685;28;20180;-75
2021/06/17 00:14:48;;;;;;;2.97;2.67;;;;;;;;;;5056389;28;20180;-75
2021/06/17 00:17:52;;;;;;;3.57;2.80;;;;;;;;;;5055239;28;20220;-74
2021/06/17 00:20:58;;;;;;;5.23;2.77;;;;;;;;;;5056267;28;20176;-74
2021/06/17 00:24:02;;;;;;;6.23;3.10;;;;;;;;;;5043775;28;20208;-75
2021/06/17 00:27:07;;;;;;;6.23;3.30;;;;;;;;;;5055008;28;20215;-75
2021/06/17 00:30:12;;;;;;;5.67;2.90;;;;;;;;;;5055813;28;20176;-74
2021/06/17 00:33:17;;;;;;;6.23;3.00;;;;;;;;;;5055938;28;20651;-75
2021/06/17 00:36:21;;;;;;;6.30;2.70;;;;;;;;;;5055876;28;20219;-74
2021/06/17 00:39:25;;;;;;;4.77;3.07;;;;;;;;;;5056191;28;20184;-75
2021/06/17 00:42:30;;;;;;;9.17;3.00;;;;;;;;;;5054971;28;20176;-75
2021/06/17 00:45:40;;;;;;;4.47;3.10;;;;;;;;;;5055886;28;20173;-75
2021/06/17 00:48:45;;;;;;;5.70;2.63;;;;;;;;;;5043546;28;20181;-74
2021/06/17 00:51:49;;;;;;;5.67;3.20;;;;;;;;;;5055746;28;20180;-74
2021/06/17 00:54:57;;;;;;;5.27;3.80;;;;;;;;;;5055433;28;20168;-74
2021/06/17 00:58:02;;;;;;;5.07;3.00;;;;;;;;;;5055519;28;20216;-74
2021/06/17 01:01:06;;;;;;;6.40;3.30;;;;;;;;;;5055140;28;20208;-74
2021/06/17 01:04:10;;;;;;;3.97;2.73;;;;;;;;;;5055088;28;20212;-74
2021/06/17 01:07:24;;;;;;;3.53;3.10;;;;;;;;;;5055645;28;20212;-74
2021/06/17 01:10:43;;;;;;;5.37;3.50;;;;;;;;;;5055048;28;20188;-75
2021/06/17 01:13:52;;;;;;;9.73;3.30;;;;;;;;;;5054231;28;20173;-74
2021/06/17 01:17:08;;;;;;;5.33;3.30;;;;;;;;;;5054280;28;20224;-75
2021/06/17 01:20:23;;;;;;;4.40;3.13;;;;;;;;;;5054395;28;20188;-75
2021/06/17 01:23:54;;;;;;;5.00;3.50;;;;;;;;;;5055219;28;20180;-75
2021/06/17 01:27:26;;;;;;;8.47;3.57;;;;;;;;;;5054687;28;20207;-74
2021/06/17 01:30:36;;;;;;;8.70;3.70;;;;;;;;;;5054175;28;20172;-74
2021/06/17 01:33:43;;;;;;;4.00;3.27;;;;;;;;;;5054790;28;20173;-75
2021/06/17 01:36:54;;;;;;;6.23;3.47;;;;;;;;;;5054692;28;20219;-75
2021/06/17 01:40:01;;;;;;;7.27;4.03;;;;;;;;;;5054498;28;20196;-74
2021/06/17 01:43:08;;;;;;;5.70;3.50;;;;;;;;;;5054765;28;20184;-74
2021/06/17 01:46:13;;;;;;;5.13;3.67;;;;;;;;;;5054328;28;20220;-74
2021/06/17 01:49:18;;;;;;;4.43;3.83;;;;;;;;;;5054328;28;20176;-75
2021/06/17 01:52:25;;;;;;;5.30;3.50;;;;;;;;;;5054574;28;20180;-74
2021/06/17 01:55:31;;;;;;;7.83;3.93;;;;;;;;;;5052849;28;20176;-74
2021/06/17 01:58:36;;;;;;;6.83;3.50;;;;;;;;;;5054123;28;20200;-74
2021/06/17 02:01:42;;;;;;;4.17;3.77;;;;;;;;;;5053974;28;20203;-74
2021/06/17 02:04:50;;;;;;;8.70;3.70;;;;;;;;;;5053903;28;20223;-74
2021/06/17 02:07:56;;;;;;;5.43;3.70;;;;;;;;;;5053905;28;20211;-74
2021/06/17 02:11:01;;;;;;;5.17;3.50;;;;;;;;;;5053394;28;20176;-74
2021/06/17 02:14:09;;;;;;;6.00;3.40;;;;;;;;;;5054434;28;20173;-74
2021/06/17 02:17:18;;;;;;;5.60;3.57;;;;;;;;;;5053883;28;20690;-74
2021/06/17 02:20:22;;;;;;;5.57;4.10;;;;;;;;;;5054049;28;20180;-74
2021/06/17 02:23:31;;;;;;;4.60;3.57;;;;;;;;;;5053089;28;20188;-74
2021/06/17 02:26:40;;;;;;;4.63;3.90;;;;;;;;;;5053776;28;20208;-74
2021/06/17 02:29:47;;;;;;;7.27;4.17;;;;;;;;;;5053898;28;20185;-74
2021/06/17 02:32:55;;;;;;;6.07;4.00;;;;;;;;;;5053589;28;20180;-74
2021/06/17 02:36:00;;;;;;;5.20;3.70;;;;;;;;;;5053218;28;20507;-75
2021/06/17 02:39:06;;;;;;;5.77;4.27;;;;;;;;;;5053441;28;20184;-74
2021/06/17 02:42:14;;;;;;;5.83;4.27;;;;;;;;;;5053685;28;20176;-74
2021/06/17 02:45:19;;;;;;;4.83;3.87;;;;;;;;;;5052759;28;20207;-74
2021/06/17 02:48:23;;;;;;;6.33;4.20;;;;;;;;;;5053575;28;20184;-74
2021/06/17 02:51:27;;;;;;;4.83;4.20;;;;;;;;;;5053287;28;20180;-75
2021/06/17 02:54:31;;;;;;;5.27;3.87;;;;;;;;;;5053245;28;20184;-74
2021/06/17 02:57:57;;;;;;;5.37;4.67;;;;;;;;;;5053097;28;20212;-73
2021/06/17 03:01:10;;;;;;;8.60;4.67;;;;;;;;;;5045635;22;20234;-71
2021/06/17 03:04:22;;;;;;;5.87;4.40;;;;;;;;;;5001237;28;20209;-72
2021/06/17 03:07:31;;;;;;;7.33;4.40;;;;;;;;;;5013367;28;20221;-72
2021/06/17 03:10:36;;;;;;;5.53;3.77;;;;;;;;;;5012429;28;20549;-71
2021/06/17 03:13:42;;;;;;;6.67;4.27;;;;;;;;;;5013612;28;20624;-72
2021/06/17 03:16:50;;;;;;;5.83;4.27;;;;;;;;;;5013509;28;20561;-72
2021/06/17 03:19:56;;;;;;;7.50;4.63;;;;;;;;;;5012804;28;20189;-71
2021/06/17 03:23:04;;;;;;;7.87;4.20;;;;;;;;;;5013155;28;20660;-71
2021/06/17 03:26:10;;;;;;;11.93;4.73;;;;;;;;;;5012259;28;20225;-72
2021/06/17 03:29:17;;;;;;;4.60;4.10;;;;;;;;;;5012642;28;20185;-72
2021/06/17 03:32:22;;;;;;;9.90;4.90;;;;;;;;;;4992935;28;20657;-72
2021/06/17 03:35:28;;;;;;;8.00;4.43;;;;;;;;;;4993772;28;20186;-72
2021/06/17 03:38:35;;;;;;;5.93;4.30;;;;;;;;;;4993629;28;20182;-72
2021/06/17 03:41:40;;;;;;;5.70;3.97;;;;;;;;;;5008453;28;20186;-71
2021/06/17 03:44:45;;;;;;;5.83;4.30;;;;;;;;;;5011662;28;20214;-72
2021/06/17 03:47:51;;;;;;;5.87;4.20;;;;;;;;;;5012882;28;20217;-72
2021/06/17 03:50:57;;;;;;;5.87;4.13;;;;;;;;;;5012599;28;20205;-71
2021/06/17 03:54:02;;;;;;;6.70;4.20;;;;;;;;;;5013120;28;20193;-72
2021/06/17 03:57:06;;;;;;;8.30;4.47;;;;;;;;;;4981534;28;20693;-72
2021/06/17 04:00:13;;;;;;;6.60;4.20;;;;;;;;;;5008422;28;20213;-73
2021/06/17 04:03:19;;;;;;;8.27;4.60;;;;;;;;;;5012811;28;20181;-73
2021/06/17 04:06:26;;;;;;;8.23;4.20;;;;;;;;;;5011742;28;20564;-73
2021/06/17 04:09:32;;;;;;;15.87;5.17;;;;;;;;;;5012049;28;20177;-73
2021/06/17 04:12:39;;;;;;;11.70;4.03;;;;;;;;;;4996806;28;20190;-72
2021/06/17 04:15:44;;;;;;;5.10;4.07;;;;;;;;;;5011822;28;20182;-72
2021/06/17 04:18:50;;;;;;;6.10;4.40;;;;;;;;;;5012495;28;20201;-71
2021/06/17 04:22:02;;;;;;;7.63;4.23;;;;;;;;;;5016231;28;20177;-73
2021/06/17 04:25:09;;;;;;;11.53;4.90;;;;;;;;;;5016137;28;20213;-73
2021/06/17 04:28:13;;;;;;;12.10;4.90;;;;;;;;;;5015968;28;20564;-72
2021/06/17 04:31:18;;;;;;;15.60;4.70;;;;;;;;;;5004322;28;20190;-73
2021/06/17 04:34:23;;;;;;;11.13;4.80;;;;;;;;;;5016056;28;20186;-73
2021/06/17 04:37:28;;;;;;;11.27;4.10;;;;;;;;;;5015180;28;20217;-73
2021/06/17 04:40:34;;;;;;;6.20;4.07;;;;;;;;;;5015924;28;20174;-72
2021/06/17 04:43:39;;;;;;;8.10;4.77;;;;;;;;;;5015614;28;20181;-73
2021/06/17 04:46:44;;;;;;;7.20;4.40;;;;;;;;;;5015106;28;20209;-73
2021/06/17 04:49:49;;;;;;;7.10;4.80;;;;;;;;;;5015955;28;20197;-73
2021/06/17 04:52:56;;;;;;;12.10;5.27;;;;;;;;;;5014815;28;20201;-73
2021/06/17 04:56:01;;;;;;;8.20;4.87;;;;;;;;;;5016084;28;20178;-73
2021/06/17 04:59:05;;;;;;;5.63;4.87;;;;;;;;;;5015830;28;20226;-73
2021/06/17 05:02:09;;;;;;;10.73;5.20;;;;;;;;;;5015440;28;20197;-73
2021/06/17 05:05:14;;;;;;;8.27;5.30;;;;;;;;;;5014525;28;20576;-73
2021/06/17 05:11:22;;;;;;;25.13;6.40;;;;;;;;;;5015609;28;20645;-73
2021/06/17 05:14:26;;;;;;;12.30;6.10;;;;;;;;;;5014419;28;20201;-73
2021/06/17 05:17:31;;;;;;;8.73;5.07;;;;;;;;;;5015082;28;20212;-73
2021/06/17 05:20:35;;;;;;;11.20;5.30;;;;;;;;;;5015391;28;20636;-73
2021/06/17 05:23:40;;;;;;;15.07;6.13;;;;;;;;;;5014989;28;20181;-73
2021/06/17 05:26:44;;;;;;;12.70;7.77;;;;;;;;;;5015072;28;20232;-73
2021/06/17 05:29:48;;;;;;;19.87;6.57;;;;;;;;;;5014710;28;20201;-73
2021/06/17 05:32:52;;;;;;;13.50;6.53;;;;;;;;;;5015188;28;20178;-73
2021/06/17 05:35:57;;;;;;;11.93;5.67;;;;;;;;;;5003313;28;20169;-73
2021/06/17 05:39:02;;;;;;;15.00;5.63;;;;;;;;;;5014146;28;20186;-73
2021/06/17 05:42:07;;;;;;;13.03;5.30;;;;;;;;;;5014982;28;20237;-73
2021/06/17 05:45:12;;;;;;;11.03;5.57;;;;;;;;;;5014836;28;20206;-73
2021/06/17 05:48:16;;;;;;;21.50;6.40;;;;;;;;;;5013749;28;20178;-72
2021/06/17 05:51:20;;;;;;;12.93;6.37;;;;;;;;;;5002771;28;20189;-72
2021/06/17 05:54:25;;;;;;;13.60;5.80;;;;;;;;;;5014039;28;20185;-73
2021/06/17 05:57:29;;;;;;;11.00;6.20;;;;;;;;;;5014200;28;20209;-72
2021/06/17 06:00:33;;;;;;;11.73;5.70;;;;;;;;;;5014432;28;20683;-73
2021/06/17 06:03:37;;;;;;;20.20;6.47;;;;;;;;;;5014458;28;20182;-72
2021/06/17 06:06:41;;;;;;;16.13;5.13;;;;;;;;;;5014569;28;20233;-73
2021/06/17 06:09:45;;;;;;;13.57;5.23;;;;;;;;;;5014226;28;20181;-73
2021/06/17 06:12:49;;;;;;;14.23;5.37;;;;;;;;;;5014460;28;20177;-73
2021/06/17 06:15:54;;;;;;;6.87;4.23;;;;;;;;;;5013281;28;20632;-73
2021/06/17 06:18:58;;;;;;;6.17;3.47;;;;;;;;;;5014367;28;20173;-73
2021/06/17 06:22:07;;;;;;;7.33;4.13;;;;;;;;;;5014047;28;20518;-73
2021/06/17 06:25:11;;;;;;;8.03;3.93;;;;;;;;;;5013446;28;20221;-72
2021/06/17 06:28:18;;;;;;;4.70;4.00;;;;;;;;;;5002632;28;20194;-72
2021/06/17 06:31:22;;;;;;;7.53;4.10;;;;;;;;;;5013909;28;20178;-73
2021/06/17 06:34:27;;;;;;;6.27;3.87;;;;;;;;;;5013370;28;20624;-73
2021/06/17 06:37:31;;;;;;;7.63;4.13;;;;;;;;;;4994161;28;20213;-73
2021/06/17 06:40:35;;;;;;;11.93;4.20;;;;;;;;;;4994245;28;20178;-73
2021/06/17 06:43:39;;;;;;;6.30;4.53;;;;;;;;;;4994154;28;20526;-73
2021/06/17 06:46:44;;;;;;;8.10;4.20;;;;;;;;;;4994101;28;20241;-73
2021/06/17 06:49:48;;;;;;;8.53;4.37;;;;;;;;;;4994331;28;20182;-73
2021/06/17 06:52:53;;;;;;;13.80;5.20;;;;;;;;;;5005881;28;20205;-72
2021/06/17 06:55:57;;;;;;;8.10;4.57;;;;;;;;;;5001390;28;20169;-72
2021/06/17 06:59:02;;;;;;;8.47;4.20;;;;;;;;;;5013873;28;20523;-73
2021/06/17 07:02:06;;;;;;;5.23;3.93;;;;;;;;;;5013417;28;20201;-73
2021/06/17 07:05:10;;;;;;;5.80;4.70;;;;;;;;;;5013658;28;20181;-73
2021/06/17 07:08:15;;;;;;;6.23;4.20;;;;;;;;;;5013291;28;20212;-73
2021/06/17 07:11:19;;;;;;;6.50;3.87;;;;;;;;;;5013647;28;20537;-73
2021/06/17 07:14:24;;;;;;;8.07;3.70;;;;;;;;;;5013698;28;20181;-73
2021/06/17 07:17:28;;;;;;;5.30;3.97;;;;;;;;;;5013462;28;20205;-73
2021/06/17 07:20:32;;;;;;;7.90;4.57;;;;;;;;;;5013318;28;20522;-73
2021/06/17 07:23:37;;;;;;;8.07;4.13;;;;;;;;;;5012865;28;20181;-73
2021/06/17 07:26:41;;;;;;;6.03;4.17;;;;;;;;;;5012691;28;20233;-72
2021/06/17 07:29:45;;;;;;;4.87;4.27;;;;;;;;;;5013522;28;20177;-73
2021/06/17 07:32:50;;;;;;;5.40;4.13;;;;;;;;;;5012325;28;20201;-72
2021/06/17 07:35:55;;;;;;;8.90;4.50;;;;;;;;;;5013342;28;20204;-73
2021/06/17 07:38:59;;;;;;;11.87;5.30;;;;;;;;;;5013277;28;20174;-72
2021/06/17 07:42:04;;;;;;;5.83;4.10;;;;;;;;;;5001352;28;20518;-73
2021/06/17 07:45:09;;;;;;;10.37;4.47;;;;;;;;;;5012560;28;20180;-73
2021/06/17 07:48:14;;;;;;;9.00;4.60;;;;;;;;;;5012938;28;20558;-73
2021/06/17 07:51:19;;;;;;;6.85;4.32;;;;;;;;;;5012503;28;20179;-73
2021/06/17 07:54:23;;;;;;;7.20;4.22;;;;;;;;;;5015670;28;20179;-72
2021/06/17 07:57:27;;;;;;;7.43;4.25;;;;;;;;;;5016922;28;20211;-73
2021/06/17 08:00:31;;;;;;;9.55;3.53;;;;;;;;;;5016755;28;20203;-73
2021/06/17 08:03:35;;;;;;;6.10;4.35;;;;;;;;;;5016754;28;20186;-72
2021/06/17 08:06:39;;;;;;;6.50;4.20;;;;;;;;;;5016440;28;20228;-73
2021/06/17 08:09:43;;;;;;;6.78;4.70;;;;;;;;;;5015783;28;20200;-72
2021/06/17 08:12:47;;;;;;;8.82;4.07;;;;;;;;;;5016999;28;20182;-73
2021/06/17 08:15:52;;;;;;;8.48;4.45;;;;;;;;;;5016082;28;20173;-73
2021/06/17 08:18:56;;;;;;;7.95;4.20;;;;;;;;;;5015522;28;20185;-73
2021/06/17 08:22:08;;;;;;;9.25;4.32;;;;;;;;;;5016610;28;20628;-73
2021/06/17 08:25:13;;;;;;;9.88;3.92;;;;;;;;;;5016257;28;20208;-73
2021/06/17 08:28:17;;;;;;;13.95;4.03;;;;;;;;;;5016759;28;20180;-73
2021/06/17 08:31:22;;;;;;;7.13;4.32;;;;;;;;;;5016368;28;20173;-73
2021/06/17 08:34:26;;;;;;;6.22;3.63;;;;;;;;;;5016066;28;20640;-73
2021/06/17 08:37:30;;;;;;;7.53;4.13;;;;;;;;;;5016736;28;20209;-72
2021/06/17 08:40:35;;;;;;;9.63;3.70;;;;;;;;;;5016510;28;20197;-73
2021/06/17 08:43:40;;;;;;;8.70;3.53;;;;;;;;;;5016205;28;20182;-74
2021/06/17 08:46:44;;;;;;;15.13;4.63;;;;;;;;;;5016062;28;20233;-73
2021/06/17 08:49:51;;;;;;;4.95;3.65;;;;;;;;;;5004285;28;20197;-73
2021/06/17 08:52:56;;;;;;;8.18;4.40;;;;;;;;;;5015694;28;20206;-74
2021/06/17 08:56:00;;;;;;;6.15;3.70;;;;;;;;;;5015565;28;20194;-73
2021/06/17 08:59:06;;;;;;;7.55;3.97;;;;;;;;;;5015602;28;20559;-74
2021/06/17 09:02:11;;;;;;;6.65;3.95;;;;;;;;;;5055322;22;20233;-85
2021/06/17 09:05:16;;;;;;;6.78;4.00;;;;;;;;;;5034689;28;20671;-84
2021/06/17 09:08:33;;;;;;;6.47;3.97;;;;;;;;;;5012715;28;20197;-84
2021/06/17 09:11:37;;;;;;;5.95;3.63;;;;;;;;;;5036201;28;20213;-85
2021/06/17 09:14:51;;;;;;;5.90;3.63;;;;;;;;;;5023708;28;20205;-84
2021/06/17 09:18:23;;;;;;;13.88;4.07;;;;;;;;;;5023854;28;20177;-84
2021/06/17 09:21:28;;;;;;;6.30;3.88;;;;;;;;;;5023238;28;20564;-85
2021/06/17 09:24:34;;;;;;;10.27;3.95;;;;;;;;;;5035184;28;20181;-85
2021/06/17 09:27:39;;;;;;;9.20;4.03;;;;;;;;;;5034392;28;20216;-85
2021/06/17 09:30:44;;;;;;;8.43;3.92;;;;;;;;;;5034562;28;20228;-84
2021/06/17 09:33:50;;;;;;;5.82;3.72;;;;;;;;;;5035183;28;20200;-85
2021/06/17 09:36:54;;;;;;;6.80;3.42;;;;;;;;;;5023282;28;20182;-85
2021/06/17 09:40:00;;;;;;;9.55;4.38;;;;;;;;;;5023001;28;20181;-85
2021/06/17 09:43:24;;;;;;;17.42;4.32;;;;;;;;;;5034121;28;20543;-85
2021/06/17 09:46:28;;;;;;;5.82;3.80;;;;;;;;;;5023144;28;20206;-85
2021/06/17 09:49:34;;;;;;;7.57;3.80;;;;;;;;;;5022864;28;20182;-85
2021/06/17 09:52:39;;;;;;;5.47;3.58;;;;;;;;;;5022476;28;20221;-85
2021/06/17 09:55:44;;;;;;;10.70;3.95;;;;;;;;;;5022980;28;20632;-85
2021/06/17 09:58:48;;;;;;;6.20;3.55;;;;;;;;;;5033991;28;20177;-85
2021/06/17 10:01:54;;;;;;;6.05;3.53;;;;;;;;;;5033518;28;20220;-85
2021/06/17 10:05:13;;;;;;;3.25;2.85;;;;;;;;;;5022933;28;20193;-85
2021/06/17 10:08:18;;;;;;;6.18;2.70;;;;;;;;;;5033534;28;20213;-85
2021/06/17 10:11:22;;;;;;;3.88;2.55;;;;;;;;;;5034525;28;20221;-85
2021/06/17 10:14:28;;;;;;;7.40;2.83;;;;;;;;;;5022321;28;20196;-85
2021/06/17 10:17:32;;;;;;;7.05;2.70;;;;;;;;;;5033006;28;20181;-85
2021/06/17 10:20:37;;;;;;;8.88;3.08;;;;;;;;;;5033924;28;20185;-86
2021/06/17 10:23:46;;;;;;;5.38;2.92;;;;;;;;;;5022390;28;20193;-85
2021/06/17 10:26:58;;;;;;;5.70;2.90;;;;;;;;;;5010926;28;20213;-85
2021/06/17 10:30:06;;;;;;;3.45;2.70;;;;;;;;;;5021790;28;20554;-85
2021/06/17 10:33:34;;;;;;;3.85;3.15;;;;;;;;;;5010529;28;20173;-85
2021/06/17 10:36:38;;;;;;;6.13;3.20;;;;;;;;;;5033581;28;20181;-85
2021/06/17 10:39:42;;;;;;;3.70;3.13;;;;;;;;;;5031783;28;20181;-84
2021/06/17 10:42:47;;;;;;;4.03;3.30;;;;;;;;;;5019990;28;20173;-84
2021/06/17 10:45:52;;;;;;;4.22;3.20;;;;;;;;;;5031225;28;20197;-83
2021/06/17 10:48:56;;;;;;;3.65;3.30;;;;;;;;;;5032057;28;20193;-84
2021/06/17 10:52:26;;;;;;;3.67;3.10;;;;;;;;;;5030681;28;20731;-84
2021/06/17 10:56:08;;;;;;;3.15;2.78;;;;;;;;;;5031018;28;20177;-84
2021/06/17 10:59:28;;;;;;;4.78;3.28;;;;;;;;;;5031162;28;20519;-83
2021/06/17 11:02:33;;;;;;;5.22;2.95;;;;;;;;;;5030855;28;20221;-84
2021/06/17 11:05:39;;;;;;;6.30;3.10;;;;;;;;;;5030884;28;20181;-83
2021/06/17 11:08:43;;;;;;;9.02;3.42;;;;;;;;;;5019475;28;20213;-83
2021/06/17 11:11:49;;;;;;;3.13;2.83;;;;;;;;;;5030953;28;20691;-84
2021/06/17 11:14:58;;;;;;;6.07;2.63;;;;;;;;;;5019269;28;20181;-83
2021/06/17 11:18:04;;;;;;;4.75;2.55;;;;;;;;;;5030934;28;20177;-84
2021/06/17 11:21:30;;;;;;;3.38;2.45;;;;;;;;;;5030872;28;20224;-84
2021/06/17 11:24:34;;;;;;;3.10;2.42;;;;;;;;;;5008502;28;20173;-84
2021/06/17 11:28:08;;;;;;;18.88;5.53;;;;;;;;;;5032808;28;20220;-84
2021/06/17 11:31:37;;;;;;;3.67;1.85;;;;;;;;;;5034505;28;20213;-83
2021/06/17 11:34:41;;;;;;;9.75;2.75;;;;;;;;;;5023462;28;20181;-84
2021/06/17 11:37:47;;;;;;;2.72;1.90;;;;;;;;;;5023454;28;20519;-84
2021/06/17 11:40:52;;;;;;;4.18;2.10;;;;;;;;;;5022755;28;20224;-84
2021/06/17 11:44:04;;;;;;;6.13;2.05;;;;;;;;;;5019214;28;20193;-84
2021/06/17 11:47:11;;;;;;;3.63;1.90;;;;;;;;;;5012907;28;20213;-83
2021/06/17 11:50:16;;;;;;;2.90;1.63;;;;;;;;;;5012874;28;20185;-84
2021/06/17 11:53:24;;;;;;;2.67;1.88;;;;;;;;;;5012598;28;20197;-84
2021/06/17 11:56:30;;;;;;;7.55;1.75;;;;;;;;;;5001785;28;20178;-84
2021/06/17 11:59:36;;;;;;;2.67;1.45;;;;;;;;;;5001760;28;20633;-84
2021/06/17 12:02:43;;;;;;;4.30;1.73;;;;;;;;;;5012578;28;20225;-84
2021/06/17 12:05:47;;;;;;;2.22;1.70;;;;;;;;;;5032158;28;20197;-84
2021/06/17 12:09:02;;;;;;;4.47;1.70;;;;;;;;;;5020873;28;20205;-84
2021/06/17 12:12:18;;;;;;;2.70;2.15;;;;;;;;;;5035591;28;20224;-85
2021/06/17 12:15:22;;;;;;;3.03;1.73;;;;;;;;;;5024708;28;20181;-85
2021/06/17 12:18:26;;;;;;;2.63;1.73;;;;;;;;;;5013370;28;20185;-85
2021/06/17 12:21:34;;;;;;;2.33;1.80;;;;;;;;;;5013178;28;20208;-85
2021/06/17 12:24:38;;;;;;;2.72;1.77;;;;;;;;;;5013022;28;20636;-85
2021/06/17 12:27:44;;;;;;;3.65;1.67;;;;;;;;;;5024377;28;20205;-85
2021/06/17 12:30:51;;;;;;;1.70;1.60;;;;;;;;;;5024390;28;20548;-85
2021/06/17 12:34:18;;;;;;;1.75;1.65;;;;;;;;;;5035717;28;20177;-85
2021/06/17 12:37:22;;;;;;;1.60;1.48;;;;;;;;;;5023906;28;20190;-85
2021/06/17 12:40:37;;;;;;;5.00;1.60;;;;;;;;;;5011993;28;20197;-84
2021/06/17 12:43:53;;;;;;;3.72;1.63;;;;;;;;;;5004704;28;20629;-85
2021/06/17 12:46:59;;;;;;;1.50;1.40;;;;;;;;;;5019760;28;20552;-85
2021/06/17 12:53:15;;;;;;;1.48;1.33;;;;;;;;;;5035477;28;20189;-85
2021/06/17 12:56:20;;;;;;;5.95;1.92;;;;;;;;;;5012794;28;20185;-85
2021/06/17 12:59:59;;;;;;;30.85;4.03;;;;;;;;;;5024244;28;20178;-85
2021/06/17 13:03:05;;;;;;;8.77;2.03;;;;;;;;;;5041537;28;20556;-85
2021/06/17 13:06:09;;;;;;;4.43;1.60;;;;;;;;;;5035346;28;20189;-85
2021/06/17 13:09:21;;;;;;;1.50;1.20;;;;;;;;;;5035429;28;20204;-85
2021/06/17 13:12:31;;;;;;;3.80;1.67;;;;;;;;;;5035426;28;20213;-85
2021/06/17 13:15:35;;;;;;;6.35;1.73;;;;;;;;;;5012529;28;20182;-85
2021/06/17 13:18:50;;;;;;;4.38;1.40;;;;;;;;;;5035341;28;20178;-85
2021/06/17 13:22:06;;;;;;;3.90;1.40;;;;;;;;;;5034637;28;20217;-85
2021/06/17 13:25:10;;;;;;;1.67;1.30;;;;;;;;;;5034574;28;20181;-85
2021/06/17 13:28:26;;;;;;;1.63;1.33;;;;;;;;;;5034734;28;20205;-85
2021/06/17 13:31:33;;;;;;;1.45;1.35;;;;;;;;;;5035221;28;20217;-85
2021/06/17 13:34:37;;;;;;;3.97;1.63;;;;;;;;;;5023345;28;20177;-85
2021/06/17 13:37:41;;;;;;;3.25;1.40;;;;;;;;;;5034596;28;20173;-85
2021/06/17 13:40:46;;;;;;;3.22;1.55;;;;;;;;;;5034355;28;20212;-85
2021/06/17 13:43:49;;;;;;;2.80;1.67;;;;;;;;;;5034354;28;20177;-85
2021/06/17 13:46:54;;;;;;;2.05;1.35;;;;;;;;;;5011744;28;20193;-84
2021/06/17 13:49:58;;;;;;;3.63;1.63;;;;;;;;;;5011746;28;20177;-85
2021/06/17 13:53:06;;;;;;;3.58;1.20;;;;;;;;;;5033994;28;20181;-85
2021/06/17 13:56:10;;;;;;;6.45;1.60;;;;;;;;;;5034065;28;20173;-85
2021/06/17 13:59:17;;;;;;;1.45;1.15;;;;;;;;;;5022844;28;20173;-85
2021/06/17 14:02:22;;;;;;;2.22;1.30;;;;;;;;;;5032785;28;20220;-85
2021/06/17 14:05:26;;;;;;;2.10;1.45;;;;;;;;;;5032434;28;20173;-84
2021/06/17 14:08:31;;;;;;;1.95;1.55;;;;;;;;;;5032845;28;20209;-84
2021/06/17 14:11:35;;;;;;;3.53;1.83;;;;;;;;;;5032837;28;20217;-83
2021/06/17 14:14:40;;;;;;;2.70;1.40;;;;;;;;;;5031785;28;20177;-84
2021/06/17 14:17:44;;;;;;;3.17;1.98;;;;;;;;;;5020912;28;20170;-85
2021/06/17 14:20:48;;;;;;;3.33;1.88;;;;;;;;;;5031865;28;20224;-84
2021/06/17 14:23:52;;;;;;;3.20;1.80;;;;;;;;;;5009463;28;20189;-84
2021/06/17 14:26:57;;;;;;;1.92;1.52;;;;;;;;;;5031346;28;20174;-84
2021/06/17 14:30:02;;;;;;;4.50;2.00;;;;;;;;;;5020443;28;20177;-85
2021/06/17 14:33:07;;;;;;;2.00;1.80;;;;;;;;;;5020350;28;20185;-84
2021/06/17 14:36:11;;;;;;;2.75;2.03;;;;;;;;;;5031474;28;20180;-84
2021/06/17 14:39:15;;;;;;;2.63;1.65;;;;;;;;;;5030944;28;20205;-84
2021/06/17 14:42:19;;;;;;;2.33;1.50;;;;;;;;;;5020018;28;20209;-84
2021/06/17 14:45:24;;;;;;;4.68;1.70;;;;;;;;;;5019965;28;20188;-84
2021/06/17 14:48:28;;;;;;;3.17;1.65;;;;;;;;;;5031169;28;20169;-84
2021/06/17 14:51:32;;;;;;;6.40;1.98;;;;;;;;;;5019623;28;20216;-84
2021/06/17 14:54:36;;;;;;;1.90;1.50;;;;;;;;;;5034117;28;20181;-85
2021/06/17 14:57:42;;;;;;;3.40;1.80;;;;;;;;;;5022108;28;20525;-85
2021/06/17 15:00:48;;;;;;;3.13;1.80;;;;;;;;;;5033755;28;20224;-84
2021/06/17 15:03:52;;;;;;;6.40;2.22;;;;;;;;;;5052775;22;20229;-73
2021/06/17 15:06:57;;;;;;;5.85;1.90;;;;;;;;;;5022675;28;20221;-73
2021/06/17 15:10:02;;;;;;;3.28;1.80;;;;;;;;;;5029063;28;20197;-74
2021/06/17 15:13:06;;;;;;;3.15;1.60;;;;;;;;;;5013178;28;20248;-74
2021/06/17 15:16:10;;;;;;;3.80;1.77;;;;;;;;;;5031499;28;20197;-74
2021/06/17 15:19:15;;;;;;;5.80;1.90;;;;;;;;;;5032983;28;20212;-74
2021/06/17 15:22:19;;;;;;;3.67;1.67;;;;;;;;;;5033293;28;20181;-71
2021/06/17 15:25:24;;;;;;;3.60;1.77;;;;;;;;;;5032025;28;20181;-71
2021/06/17 15:28:32;;;;;;;9.88;2.30;;;;;;;;;;5009169;28;20563;-72
2021/06/17 15:31:37;;;;;;;4.97;1.75;;;;;;;;;;5009914;28;20178;-71
2021/06/17 15:34:41;;;;;;;5.53;2.22;;;;;;;;;;5010213;28;20202;-71
2021/06/17 15:37:46;;;;;;;2.25;1.90;;;;;;;;;;5018261;28;20220;-72
2021/06/17 15:40:50;;;;;;;5.18;2.20;;;;;;;;;;5020408;28;20190;-71
2021/06/17 15:43:55;;;;;;;4.35;1.95;;;;;;;;;;5006461;28;20542;-71
2021/06/17 15:46:59;;;;;;;7.20;2.08;;;;;;;;;;5022571;28;20225;-71
2021/06/17 15:50:06;;;;;;;8.68;2.10;;;;;;;;;;5027358;28;20201;-72
2021/06/17 15:53:12;;;;;;;3.20;1.80;;;;;;;;;;5018462;28;20204;-72
2021/06/17 15:56:16;;;;;;;6.65;1.80;;;;;;;;;;5029337;28;20242;-73
2021/06/17 15:59:21;;;;;;;5.75;1.88;;;;;;;;;;5016229;28;20209;-72
2021/06/17 16:02:26;;;;;;;2.42;1.90;;;;;;;;;;5010733;28;20194;-71
2021/06/17 16:05:30;;;;;;;20.50;2.92;;;;;;;;;;5032916;28;20525;-71
2021/06/17 16:08:34;;;;;;;12.65;2.47;;;;;;;;;;5026150;28;20523;-72
2021/06/17 16:11:38;;;;;;;4.38;1.90;;;;;;;;;;5013175;28;20185;-73
2021/06/17 16:14:42;;;;;;;7.25;1.92;;;;;;;;;;5031191;28;20533;-73
2021/06/17 16:17:51;;;;;;;2.75;1.65;;;;;;;;;;5036140;28;20711;-73
2021/06/17 16:20:56;;;;;;;1.70;1.60;;;;;;;;;;5034749;28;20173;-73
2021/06/17 16:24:00;;;;;;;2.42;1.65;;;;;;;;;;5027324;28;20188;-73
2021/06/17 16:27:08;;;;;;;3.63;1.70;;;;;;;;;;5027181;28;20225;-73
2021/06/17 16:30:13;;;;;;;3.22;1.80;;;;;;;;;;4996613;28;20202;-73
2021/06/17 16:33:17;;;;;;;2.25;1.75;;;;;;;;;;4996830;28;20198;-73
2021/06/17 16:36:21;;;;;;;8.35;2.25;;;;;;;;;;5004369;28;20223;-73
2021/06/17 16:39:25;;;;;;;2.45;1.60;;;;;;;;;;5026345;28;20243;-73
2021/06/17 16:42:30;;;;;;;11.40;2.22;;;;;;;;;;5017116;28;20205;-73
2021/06/17 16:45:34;;;;;;;5.70;1.90;;;;;;;;;;5033655;28;20200;-73
2021/06/17 16:48:38;;;;;;;4.03;1.90;;;;;;;;;;5015847;28;20181;-73
2021/06/17 16:51:42;;;;;;;2.85;1.98;;;;;;;;;;5027945;28;20191;-73
2021/06/17 16:54:47;;;;;;;2.58;2.13;;;;;;;;;;5023533;28;20184;-73
2021/06/17 16:57:52;;;;;;;3.30;2.00;;;;;;;;;;5021935;28;20223;-73
2021/06/17 17:00:57;;;;;;;3.45;2.00;;;;;;;;;;5035716;28;20175;-73
2021/06/17 17:04:01;;;;;;;5.47;1.90;;;;;;;;;;5035317;28;20208;-73
2021/06/17 17:07:06;;;;;;;2.53;2.00;;;;;;;;;;5016977;28;20703;-73
2021/06/17 17:10:14;;;;;;;3.45;2.25;;;;;;;;;;5015499;28;20175;-73
2021/06/17 17:13:21;;;;;;;2.53;2.30;;;;;;;;;;5025562;28;20189;-73
2021/06/17 17:16:26;;;;;;;4.40;2.33;;;;;;;;;;5024121;28;20228;-73
2021/06/17 17:19:30;;;;;;;5.00;2.50;;;;;;;;;;5014423;28;20212;-73
2021/06/17 17:22:34;;;;;;;3.30;2.47;;;;;;;;;;5018541;28;20191;-73
2021/06/17 17:25:40;;;;;;;6.05;2.63;;;;;;;;;;5030614;28;20192;-73
2021/06/17 17:28:44;;;;;;;3.60;2.28;;;;;;;;;;5014291;28;20213;-73
2021/06/17 17:31:48;;;;;;;4.35;2.33;;;;;;;;;;5024591;28;20663;-73
2021/06/17 17:34:53;;;;;;;7.35;2.30;;;;;;;;;;5010688;28;20195;-73
2021/06/17 17:37:57;;;;;;;3.53;2.30;;;;;;;;;;5015953;28;20225;-73
2021/06/17 17:41:02;;;;;;;3.25;2.10;;;;;;;;;;5015153;28;20179;-73
2021/06/17 17:44:06;;;;;;;2.63;2.35;;;;;;;;;;5018673;28;20192;-73
2021/06/17 17:47:10;;;;;;;3.50;2.30;;;;;;;;;;5025470;28;20223;-73
2021/06/17 17:50:15;;;;;;;3.28;2.03;;;;;;;;;;5015002;28;20173;-73
2021/06/17 17:53:19;;;;;;;2.80;2.25;;;;;;;;;;5014883;28;20189;-73
2021/06/17 17:56:23;;;;;;;7.75;2.42;;;;;;;;;;4995218;28;20235;-73
2021/06/17 17:59:27;;;;;;;6.80;2.25;;;;;;;;;;4994863;28;20571;-73
2021/06/17 18:02:31;;;;;;;4.78;2.10;;;;;;;;;;4994812;28;20544;-73
2021/06/17 18:05:36;;;;;;;4.72;2.47;;;;;;;;;;5027359;28;20195;-73
2021/06/17 18:08:40;;;;;;;4.78;2.22;;;;;;;;;;5034350;28;20178;-73
2021/06/17 18:11:45;;;;;;;4.97;2.20;;;;;;;;;;5034032;28;20636;-73
2021/06/17 18:14:50;;;;;;;2.75;1.90;;;;;;;;;;5025045;28;20538;-73
2021/06/17 18:17:56;;;;;;;3.50;2.33;;;;;;;;;;5014411;28;20221;-73
2021/06/17 18:21:00;;;;;;;2.60;1.92;;;;;;;;;;5027899;28;20210;-73
2021/06/17 18:24:06;;;;;;;6.18;2.30;;;;;;;;;;5031101;28;20533;-73
2021/06/17 18:27:22;;;;;;;4.60;2.03;;;;;;;;;;4982705;28;20561;-73
2021/06/17 18:30:26;;;;;;;3.63;2.22;;;;;;;;;;5017599;28;20193;-73
2021/06/17 18:33:31;;;;;;;5.28;1.92;;;;;;;;;;5016101;28;20198;-73
2021/06/17 18:36:35;;;;;;;7.18;2.33;;;;;;;;;;5013178;28;20217;-73
2021/06/17 18:39:39;;;;;;;2.60;2.30;;;;;;;;;;5013778;28;20219;-73
2021/06/17 18:42:44;;;;;;;2.30;1.88;;;;;;;;;;5014182;28;20197;-72